createdAt,value
2023-03-02T00:01:54.083Z,99072.03
2023-03-02T00:04:26.745Z,99070.38
2023-03-02T00:07:00.493Z,99074.53
2023-03-02T00:09:29.354Z,99077.53
2023-03-02T00:11:57.329Z,99075.66
2023-03-02T00:14:24.873Z,99079.94
2023-03-02T00:16:52.410Z,99070.31
2023-03-02T00:19:20.058Z,99077.78
2023-03-02T00:21:47.680Z,99075.47
2023-03-02T00:24:17.930Z,99070.88
2023-03-02T00:26:45.826Z,99068.91
2023-03-02T00:29:13.899Z,99075.69
2023-03-02T00:31:41.617Z,99071.31
2023-03-02T00:34:09.174Z,99074.19
2023-03-02T00:36:36.711Z,99090.03
2023-03-02T00:39:04.885Z,99089.41
2023-03-02T00:41:32.366Z,99097.75
2023-03-02T00:43:59.967Z,99103.75
2023-03-02T00:46:28.738Z,99099.94
2023-03-02T00:48:56.418Z,99104.41
2023-03-02T00:51:25.163Z,99118.44
2023-03-02T00:53:52.761Z,99116.00
2023-03-02T00:56:20.350Z,99115.03
2023-03-02T00:58:51.075Z,99124.69
2023-03-02T01:01:18.979Z,99119.28
2023-03-02T01:03:50.174Z,99101.75
2023-03-02T01:06:20.531Z,99109.13
2023-03-02T01:08:48.331Z,99107.91
2023-03-02T01:11:18.264Z,99111.75
2023-03-02T01:13:48.276Z,99102.66
2023-03-02T01:16:16.187Z,99108.94
2023-03-02T01:18:43.887Z,99115.16
2023-03-02T01:21:13.828Z,99126.13
2023-03-02T01:23:41.968Z,99114.06
2023-03-02T01:26:10.007Z,99118.13
2023-03-02T01:28:37.490Z,99129.63
2023-03-02T01:31:05.313Z,99125.56
2023-03-02T01:33:33.246Z,99125.03
2023-03-02T01:36:01.045Z,99125.66
2023-03-02T01:38:29.012Z,99135.75
2023-03-02T01:40:56.778Z,99111.53
2023-03-02T01:43:24.615Z,99109.25
2023-03-02T01:45:56.264Z,99105.09
2023-03-02T01:48:48.574Z,99101.03
2023-03-02T01:51:24.093Z,99118.34
2023-03-02T01:53:56.966Z,99127.22
2023-03-02T01:56:34.846Z,99139.06
2023-03-02T01:59:07.800Z,99141.47
2023-03-02T02:01:37.974Z,99129.19
2023-03-02T02:04:07.546Z,99155.81
2023-03-02T02:06:47.160Z,99149.34
2023-03-02T02:09:18.351Z,99146.28
2023-03-02T02:11:46.623Z,99144.09
2023-03-02T02:14:14.815Z,99142.34
2023-03-02T02:16:42.670Z,99139.59
2023-03-02T02:19:24.384Z,99151.75
2023-03-02T02:21:54.762Z,99148.91
2023-03-02T02:24:41.529Z,99165.34
2023-03-02T02:27:11.117Z,99165.91
2023-03-02T02:29:45.601Z,99138.50
2023-03-02T02:32:18.457Z,99139.81
2023-03-02T02:35:05.608Z,99136.31
2023-03-02T02:37:39.679Z,99154.38
2023-03-02T02:40:15.473Z,99144.28
2023-03-02T02:42:46.698Z,99149.13
2023-03-02T02:45:27.508Z,99154.06
2023-03-02T02:47:57.216Z,99166.53
2023-03-02T02:50:29.817Z,99168.84
2023-03-02T02:53:30.397Z,99173.91
2023-03-02T02:55:59.263Z,99169.19
2023-03-02T02:58:45.060Z,99185.84
2023-03-02T03:01:15.451Z,99172.34
2023-03-02T03:03:50.769Z,99184.72
2023-03-02T03:06:21.115Z,99187.69
2023-03-02T03:08:53.204Z,99191.50
2023-03-02T03:11:28.030Z,99195.91
2023-03-02T03:14:39.323Z,99191.19
2023-03-02T03:17:12.282Z,99206.53
2023-03-02T03:19:47.133Z,99207.19
2023-03-02T03:22:16.750Z,99188.00
2023-03-02T03:24:46.716Z,99206.22
2023-03-02T03:27:16.838Z,99198.22
2023-03-02T03:29:50.343Z,99190.09
2023-03-02T03:32:20.777Z,99180.22
2023-03-02T03:34:50.505Z,99180.22
2023-03-02T03:37:30.610Z,99171.13
2023-03-02T03:39:58.356Z,99185.84
2023-03-02T03:42:26.062Z,99188.81
2023-03-02T03:44:55.645Z,99175.19
2023-03-02T03:47:24.011Z,99166.00
2023-03-02T03:49:52.372Z,99175.22
2023-03-02T03:52:30.859Z,99173.69
2023-03-02T03:55:07.475Z,99172.81
2023-03-02T03:57:35.404Z,99176.97
2023-03-02T04:00:08.137Z,99168.00
2023-03-02T04:02:42.101Z,99166.75
2023-03-02T04:05:12.806Z,99176.22
2023-03-02T04:07:41.268Z,99177.09
2023-03-02T04:10:10.377Z,99181.25
2023-03-02T04:12:41.360Z,99185.28
2023-03-02T04:15:14.783Z,99186.94
2023-03-02T04:17:45.067Z,99184.88
2023-03-02T04:20:16.842Z,99180.16
2023-03-02T04:22:49.573Z,99187.47
2023-03-02T04:25:21.323Z,99188.81
2023-03-02T04:27:52.804Z,99182.34
2023-03-02T04:30:25.045Z,99198.00
2023-03-02T04:32:53.031Z,99197.88
2023-03-02T04:35:21.511Z,99209.41
2023-03-02T04:37:49.234Z,99201.09
2023-03-02T04:40:17.688Z,99213.34
2023-03-02T04:42:45.177Z,99211.81
2023-03-02T04:45:13.747Z,99216.63
2023-03-02T04:47:41.920Z,99230.78
2023-03-02T04:50:12.253Z,99241.84
2023-03-02T04:52:40.215Z,99240.75
2023-03-02T04:55:08.209Z,99244.47
2023-03-02T04:57:35.807Z,99238.66
2023-03-02T05:00:05.038Z,99247.09
2023-03-02T05:02:32.598Z,99248.19
2023-03-02T05:05:00.318Z,99260.38
2023-03-02T05:07:28.289Z,99268.28
2023-03-02T05:09:56.372Z,99268.13
2023-03-02T05:12:24.326Z,99274.81
2023-03-02T05:14:51.829Z,99271.31
2023-03-02T05:17:19.307Z,99272.00
2023-03-02T05:19:46.816Z,99275.13
2023-03-02T05:22:14.362Z,99283.16
2023-03-02T05:24:41.869Z,99280.63
2023-03-02T05:27:09.456Z,99272.31
2023-03-02T05:29:36.941Z,99272.09
2023-03-02T05:32:04.811Z,99277.78
2023-03-02T05:34:32.459Z,99281.06
2023-03-02T05:37:00.020Z,99284.34
2023-03-02T05:39:27.686Z,99280.19
2023-03-02T05:41:58.449Z,99282.59
2023-03-02T05:44:25.952Z,99282.38
2023-03-02T05:46:53.553Z,99279.09
2023-03-02T05:49:21.211Z,99279.75
2023-03-02T05:51:48.653Z,99289.00
2023-03-02T05:54:16.262Z,99280.88
2023-03-02T05:56:43.923Z,99282.22
2023-03-02T05:59:13.807Z,99293.28
2023-03-02T06:01:41.343Z,99296.03
2023-03-02T06:04:08.947Z,99302.06
2023-03-02T06:06:36.731Z,99310.50
2023-03-02T06:09:04.679Z,99306.34
2023-03-02T06:11:32.321Z,99307.78
2023-03-02T06:14:00.027Z,99310.91
2023-03-02T06:16:27.598Z,99319.25
2023-03-02T06:18:55.193Z,99314.09
2023-03-02T06:21:22.763Z,99314.56
2023-03-02T06:23:50.427Z,99313.38
2023-03-02T06:26:17.898Z,99306.91
2023-03-02T06:28:52.731Z,99306.66
2023-03-02T06:31:22.217Z,99303.94
2023-03-02T06:33:49.954Z,99293.56
2023-03-02T06:36:17.713Z,99294.53
2023-03-02T06:38:45.368Z,99283.22
2023-03-02T06:41:12.928Z,99295.19
2023-03-02T06:43:40.471Z,99280.09
2023-03-02T06:46:08.542Z,99280.28
2023-03-02T06:48:36.124Z,99280.81
2023-03-02T06:51:03.771Z,99277.31
2023-03-02T06:53:31.310Z,99277.56
2023-03-02T06:55:58.833Z,99257.47
2023-03-02T06:58:26.308Z,99256.16
2023-03-02T07:00:54.087Z,99255.78
2023-03-02T07:03:21.665Z,99253.75
2023-03-02T07:05:50.178Z,99246.25
2023-03-02T07:08:17.986Z,99260.28
2023-03-02T07:10:47.657Z,99262.91
2023-03-02T07:13:15.264Z,99259.28
2023-03-02T07:15:42.912Z,99255.47
2023-03-02T07:18:10.426Z,99254.00
2023-03-02T07:20:38.398Z,99258.41
2023-03-02T07:23:06.607Z,99248.81
2023-03-02T07:25:34.219Z,99248.81
2023-03-02T07:28:01.749Z,99259.34
2023-03-02T07:30:31.501Z,99253.72
2023-03-02T07:32:59.201Z,99258.03
2023-03-02T07:35:26.820Z,99259.00
2023-03-02T07:37:54.410Z,99254.16
2023-03-02T07:40:21.889Z,99257.84
2023-03-02T07:42:49.586Z,99249.25
2023-03-02T07:45:20.306Z,99262.91
2023-03-02T07:47:47.800Z,99267.88
2023-03-02T07:50:15.569Z,99262.22
2023-03-02T07:52:43.332Z,99268.75
2023-03-02T07:55:11.259Z,99269.44
2023-03-02T07:57:38.893Z,99274.59
2023-03-02T08:00:07.119Z,99265.84
2023-03-02T08:02:40.476Z,99263.88
2023-03-02T08:05:09.271Z,99260.69
2023-03-02T08:07:36.804Z,99254.81
2023-03-02T08:10:05.287Z,99250.03
2023-03-02T08:12:32.749Z,99250.06
2023-03-02T08:15:00.175Z,99239.44
2023-03-02T08:17:27.694Z,99241.47
2023-03-02T08:19:55.164Z,99227.03
2023-03-02T08:22:22.694Z,99238.69
2023-03-02T08:24:50.279Z,99232.66
2023-03-02T08:27:18.033Z,99228.56
2023-03-02T08:29:45.523Z,99225.28
2023-03-02T08:32:13.197Z,99225.94
2023-03-02T08:34:40.788Z,99233.13
2023-03-02T08:37:08.357Z,99230.13
2023-03-02T08:39:35.882Z,99234.25
2023-03-02T08:42:04.144Z,99241.53
2023-03-02T08:44:32.474Z,99236.97
2023-03-02T08:46:59.983Z,99232.75
2023-03-02T08:49:27.990Z,99235.03
2023-03-02T08:51:56.526Z,99224.22
2023-03-02T08:54:24.327Z,99222.72
2023-03-02T08:56:51.815Z,99226.00
2023-03-02T08:59:23.690Z,99228.88
2023-03-02T09:01:52.609Z,99234.44
2023-03-02T09:04:20.434Z,99229.28
2023-03-02T09:06:55.649Z,99230.19
2023-03-02T09:09:23.269Z,99225.53
2023-03-02T09:11:50.866Z,99238.75
2023-03-02T09:14:18.458Z,99242.16
2023-03-02T09:16:47.115Z,99243.13
2023-03-02T09:19:14.938Z,99241.84
2023-03-02T09:21:42.454Z,99234.22
2023-03-02T09:24:10.369Z,99224.44
2023-03-02T09:26:39.236Z,99222.25
2023-03-02T09:29:07.417Z,99222.97
2023-03-02T09:31:36.431Z,99222.19
2023-03-02T09:34:04.615Z,99218.22
2023-03-02T09:36:35.301Z,99222.97
2023-03-02T09:39:08.776Z,99224.44
2023-03-02T09:41:54.611Z,99212.28
2023-03-02T09:44:53.035Z,99203.50
2023-03-02T09:47:35.809Z,99199.22
2023-03-02T09:50:25.656Z,99196.28
2023-03-02T09:53:05.045Z,99185.78
2023-03-02T09:55:36.553Z,99185.13
2023-03-02T09:58:09.292Z,99176.59
2023-03-02T10:00:41.224Z,99194.94
2023-03-02T10:03:20.944Z,99188.84
2023-03-02T10:05:51.159Z,99182.50
2023-03-02T10:08:21.100Z,99179.31
2023-03-02T10:11:02.092Z,99173.88
2023-03-02T10:13:37.342Z,99167.44
2023-03-02T10:16:31.225Z,99152.75
2023-03-02T10:19:11.685Z,99149.75
2023-03-02T10:22:03.561Z,99144.72
2023-03-02T10:24:50.491Z,99148.41
2023-03-02T10:27:26.445Z,99145.59
2023-03-02T10:30:08.501Z,99134.59
2023-03-02T10:32:43.976Z,99122.59
2023-03-02T10:35:23.878Z,99121.91
2023-03-02T10:37:57.213Z,99125.69
2023-03-02T10:40:42.712Z,99124.66
2023-03-02T10:43:26.238Z,99114.06
2023-03-02T10:46:09.293Z,99110.50
2023-03-02T10:48:58.321Z,99119.97
2023-03-02T10:51:31.516Z,99105.25
2023-03-02T10:54:11.732Z,99105.81
2023-03-02T10:56:43.216Z,99101.63
2023-03-02T10:59:28.723Z,99092.25
2023-03-02T11:02:27.758Z,99091.63
2023-03-02T11:05:20.033Z,99093.97
2023-03-02T11:08:05.104Z,99089.41
2023-03-02T11:10:36.853Z,99082.22
2023-03-02T11:13:20.711Z,99080.78
2023-03-02T11:15:51.205Z,99070.63
2023-03-02T11:18:34.950Z,99063.03
2023-03-02T11:21:12.891Z,99058.28
2023-03-02T11:23:53.118Z,99058.28
2023-03-02T11:26:37.896Z,99048.72
2023-03-02T11:29:34.870Z,99043.72
2023-03-02T11:32:08.464Z,99040.84
2023-03-02T11:34:57.611Z,99038.09
2023-03-02T11:37:40.492Z,99025.53
2023-03-02T11:40:17.411Z,99023.81
2023-03-02T11:42:46.076Z,99025.28
2023-03-02T11:45:13.883Z,99027.47
2023-03-02T11:47:54.273Z,99018.63
2023-03-02T11:50:26.021Z,99027.13
2023-03-02T11:52:59.585Z,99028.94
2023-03-02T11:55:31.116Z,99013.38
2023-03-02T11:58:04.824Z,99008.31
2023-03-02T12:00:43.449Z,99018.78
2023-03-02T12:03:17.143Z,99024.03
2023-03-02T12:06:01.713Z,99035.16
2023-03-02T12:08:42.209Z,99027.63
2023-03-02T12:11:19.268Z,99026.81
2023-03-02T12:13:50.110Z,99016.75
2023-03-02T12:16:24.383Z,99016.47
2023-03-02T12:18:52.819Z,99006.44
2023-03-02T12:21:23.160Z,99013.25
2023-03-02T12:24:22.456Z,99001.19
2023-03-02T12:27:27.094Z,99004.50
2023-03-02T12:30:32.793Z,99003.22
2023-03-02T12:34:11.815Z,98984.94
2023-03-02T12:38:22.501Z,98993.09
2023-03-02T12:45:56.173Z,98966.84
2023-03-02T12:49:37.288Z,98966.38
2023-03-02T12:52:36.908Z,98957.03
2023-03-02T12:55:40.845Z,98957.38
2023-03-02T12:58:21.164Z,98948.38
2023-03-02T13:01:02.400Z,98940.78
2023-03-02T13:03:51.020Z,98934.84
2023-03-02T13:11:39.400Z,98929.16
2023-03-02T13:14:50.109Z,98910.75
2023-03-02T13:17:31.108Z,98903.28
2023-03-02T13:20:00.999Z,98891.84
2023-03-02T13:22:29.566Z,98900.88
2023-03-02T13:25:03.572Z,98885.78
2023-03-02T13:27:33.977Z,98890.16
2023-03-02T13:30:22.125Z,98896.78
2023-03-02T13:32:51.373Z,98883.81
2023-03-02T13:35:26.440Z,98887.78
2023-03-02T13:38:21.644Z,98872.09
2023-03-02T13:40:51.998Z,98869.38
2023-03-02T13:43:39.745Z,98862.03
2023-03-02T13:46:13.319Z,98863.00
2023-03-02T13:48:40.867Z,98856.25
2023-03-02T13:51:16.159Z,98852.19
2023-03-02T13:53:53.533Z,98850.63
2023-03-02T13:56:27.163Z,98853.25
2023-03-02T13:58:54.685Z,98845.50
2023-03-02T14:01:22.289Z,98823.00
2023-03-02T14:03:49.842Z,98832.59
2023-03-02T14:06:18.945Z,98818.28
2023-03-02T14:08:47.325Z,98826.91
2023-03-02T14:11:16.045Z,98804.00
2023-03-02T14:13:52.995Z,98826.16
2023-03-02T14:16:21.116Z,98824.03
2023-03-02T14:18:52.409Z,98812.56
2023-03-02T14:21:27.648Z,98820.28
2023-03-02T14:23:56.167Z,98811.78
2023-03-02T14:26:33.220Z,98818.72
2023-03-02T14:29:21.359Z,98809.31
2023-03-02T14:31:54.228Z,98792.69
2023-03-02T14:34:22.128Z,98799.59
2023-03-02T14:36:53.868Z,98785.97
2023-03-02T14:39:37.337Z,98789.38
2023-03-02T14:42:16.953Z,98790.53
2023-03-02T14:44:46.458Z,98783.44
2023-03-02T14:47:16.713Z,98788.41
2023-03-02T14:49:44.658Z,98779.97
2023-03-02T14:52:23.522Z,98765.22
2023-03-02T14:54:55.145Z,98757.16
2023-03-02T14:57:28.079Z,98768.44
2023-03-02T14:59:56.708Z,98764.97
2023-03-02T15:02:26.555Z,98763.88
2023-03-02T15:04:57.622Z,98748.97
2023-03-02T15:07:28.994Z,98738.13
2023-03-02T15:09:57.903Z,98748.72
2023-03-02T15:12:25.930Z,98740.69
2023-03-02T15:14:53.431Z,98741.94
2023-03-02T15:17:21.069Z,98745.81
2023-03-02T15:19:48.699Z,98738.06
2023-03-02T15:22:16.561Z,98739.59
2023-03-02T15:24:46.477Z,98743.59
2023-03-02T15:27:14.190Z,98739.59
2023-03-02T15:29:46.578Z,98711.06
2023-03-02T15:32:15.111Z,98737.47
2023-03-02T15:34:45.919Z,98733.88
2023-03-02T15:37:13.546Z,98735.53
2023-03-02T15:39:41.336Z,98744.16
2023-03-02T15:42:09.006Z,98733.75
2023-03-02T15:44:36.622Z,98730.72
2023-03-02T15:47:04.582Z,98741.78
2023-03-02T15:49:33.018Z,98725.78
2023-03-02T15:52:01.378Z,98727.25
2023-03-02T15:54:29.353Z,98727.66
2023-03-02T15:56:57.152Z,98728.59
2023-03-02T15:59:27.701Z,98741.63
2023-03-02T16:01:59.863Z,98726.41
2023-03-02T16:04:28.144Z,98729.78
2023-03-02T16:06:56.578Z,98730.09
2023-03-02T16:09:25.033Z,98744.06
2023-03-02T16:11:52.709Z,98737.66
2023-03-02T16:14:20.386Z,98725.38
2023-03-02T16:16:48.705Z,98734.69
2023-03-02T16:19:19.079Z,98726.56
2023-03-02T16:21:47.830Z,98727.88
2023-03-02T16:24:17.139Z,98728.25
2023-03-02T16:26:45.359Z,98731.75
2023-03-02T16:29:14.280Z,98724.00
2023-03-02T16:31:42.655Z,98730.00
2023-03-02T16:34:10.757Z,98726.53
2023-03-02T16:36:40.245Z,98727.09
2023-03-02T16:39:09.465Z,98723.53
2023-03-02T16:41:40.926Z,98728.59
2023-03-02T16:44:10.702Z,98722.66
2023-03-02T16:46:40.155Z,98716.22
2023-03-02T16:49:07.877Z,98710.59
2023-03-02T16:51:35.613Z,98715.22
2023-03-02T16:54:04.152Z,98704.59
2023-03-02T16:56:31.792Z,98706.84
2023-03-02T16:59:00.232Z,98706.16
2023-03-02T17:01:28.398Z,98704.41
2023-03-02T17:03:57.481Z,98712.06
2023-03-02T17:06:25.576Z,98712.28
2023-03-02T17:08:55.554Z,98693.31
2023-03-02T17:11:23.232Z,98700.97
2023-03-02T17:13:51.005Z,98679.97
2023-03-02T17:16:19.312Z,98695.22
2023-03-02T17:18:47.321Z,98678.91
2023-03-02T17:21:16.709Z,98686.41
2023-03-02T17:23:48.072Z,98689.72
2023-03-02T17:26:17.431Z,98687.28
2023-03-02T17:28:45.033Z,98689.13
2023-03-02T17:31:12.779Z,98686.59
2023-03-02T17:33:40.427Z,98691.03
2023-03-02T17:36:12.101Z,98675.63
2023-03-02T17:38:40.096Z,98684.94
2023-03-02T17:41:10.223Z,98683.44
2023-03-02T17:43:40.247Z,98688.72
2023-03-02T17:46:20.550Z,98674.66
2023-03-02T17:48:52.497Z,98678.47
2023-03-02T17:51:22.387Z,98696.44
2023-03-02T17:53:51.580Z,98677.09
2023-03-02T17:56:24.965Z,98687.38
2023-03-02T17:58:56.541Z,98687.66
2023-03-02T18:01:24.908Z,98680.88
2023-03-02T18:03:52.601Z,98690.25
2023-03-02T18:06:20.865Z,98691.13
2023-03-02T18:08:50.463Z,98695.41
2023-03-02T18:11:21.382Z,98682.69
2023-03-02T18:13:49.198Z,98681.38
2023-03-02T18:16:16.779Z,98679.03
2023-03-02T18:18:44.246Z,98673.28
2023-03-02T18:21:11.939Z,98684.34
2023-03-02T18:23:39.930Z,98674.94
2023-03-02T18:26:08.434Z,98675.91
2023-03-02T18:28:35.922Z,98675.19
2023-03-02T18:31:03.614Z,98663.25
2023-03-02T18:33:31.537Z,98664.06
2023-03-02T18:36:00.626Z,98661.75
2023-03-02T18:38:31.069Z,98670.50
2023-03-02T18:41:00.778Z,98653.59
2023-03-02T18:43:29.024Z,98658.63
2023-03-02T18:45:57.833Z,98667.97
2023-03-02T18:48:25.543Z,98672.44
2023-03-02T18:50:53.053Z,98659.94
2023-03-02T18:53:21.061Z,98661.75
2023-03-02T18:55:48.914Z,98670.50
2023-03-02T18:58:22.746Z,98652.34
2023-03-02T19:00:50.559Z,98662.97
2023-03-02T19:03:18.371Z,98659.59
2023-03-02T19:05:46.286Z,98663.06
2023-03-02T19:08:14.062Z,98660.00
2023-03-02T19:10:42.508Z,98653.38
2023-03-02T19:13:12.139Z,98660.44
2023-03-02T19:15:40.684Z,98665.84
2023-03-02T19:18:09.527Z,98660.34
2023-03-02T19:20:37.065Z,98652.03
2023-03-02T19:23:04.737Z,98659.47
2023-03-02T19:25:32.206Z,98655.13
2023-03-02T19:27:59.905Z,98648.47
2023-03-02T19:30:27.954Z,98646.38
2023-03-02T19:32:55.602Z,98642.34
2023-03-02T19:35:27.124Z,98646.72
2023-03-02T19:37:54.768Z,98632.94
2023-03-02T19:40:24.874Z,98633.25
2023-03-02T19:42:53.602Z,98633.06
2023-03-02T19:45:24.936Z,98650.25
2023-03-02T19:47:52.854Z,98636.59
2023-03-02T19:50:21.698Z,98637.13
2023-03-02T19:52:49.944Z,98633.63
2023-03-02T19:55:17.492Z,98626.13
2023-03-02T19:57:50.947Z,98630.25
2023-03-02T20:00:22.580Z,98625.06
2023-03-02T20:02:50.885Z,98625.34
2023-03-02T20:05:19.350Z,98625.34
2023-03-02T20:07:48.296Z,98625.94
2023-03-02T20:10:38.515Z,98625.66
2023-03-02T20:13:07.435Z,98615.13
2023-03-02T20:15:38.289Z,98612.69
2023-03-02T20:18:08.737Z,98612.84
2023-03-02T20:20:36.764Z,98599.38
2023-03-02T20:23:04.724Z,98596.00
2023-03-02T20:25:36.603Z,98608.97
2023-03-02T20:28:05.865Z,98604.97
2023-03-02T20:30:39.990Z,98604.25
2023-03-02T20:33:11.944Z,98604.09
2023-03-02T20:35:42.162Z,98601.00
2023-03-02T20:38:15.751Z,98597.00
2023-03-02T20:40:43.731Z,98598.66
2023-03-02T20:43:11.424Z,98581.88
2023-03-02T20:45:39.372Z,98583.28
2023-03-02T20:48:07.771Z,98575.94
2023-03-02T20:50:36.752Z,98584.56
2023-03-02T20:53:05.484Z,98571.69
2023-03-02T20:55:33.549Z,98585.88
2023-03-02T20:58:01.631Z,98577.53
2023-03-02T21:00:30.512Z,98570.88
2023-03-02T21:02:58.521Z,98573.34
2023-03-02T21:05:30.388Z,98578.63
2023-03-02T21:07:58.433Z,98577.94
2023-03-02T21:10:29.954Z,98576.34
2023-03-02T21:12:57.850Z,98570.50
2023-03-02T21:15:27.804Z,98571.44
2023-03-02T21:17:56.227Z,98570.81
2023-03-02T21:20:25.528Z,98561.56
2023-03-02T21:22:53.010Z,98559.16
2023-03-02T21:25:20.681Z,98565.81
2023-03-02T21:27:48.799Z,98558.16
2023-03-02T21:30:19.966Z,98559.50
2023-03-02T21:32:48.787Z,98556.81
2023-03-02T21:35:20.126Z,98556.31
2023-03-02T21:37:51.044Z,98551.81
2023-03-02T21:40:26.206Z,98557.19
2023-03-02T21:42:54.555Z,98545.16
2023-03-02T21:45:23.019Z,98543.03
2023-03-02T21:47:51.428Z,98544.63
2023-03-02T21:50:28.500Z,98541.97
2023-03-02T21:52:59.388Z,98543.44
2023-03-02T21:55:29.166Z,98542.91
2023-03-02T21:57:56.815Z,98527.31
2023-03-02T22:00:42.478Z,98542.50
2023-03-02T22:03:10.018Z,98527.41
2023-03-02T22:05:39.192Z,98535.16
2023-03-02T22:08:07.290Z,98533.41
2023-03-02T22:10:41.744Z,98534.69
2023-03-02T22:13:26.150Z,98537.16
2023-03-02T22:16:04.777Z,98527.28
2023-03-02T22:18:32.368Z,98524.91
2023-03-02T22:20:59.911Z,98513.94
2023-03-02T22:23:27.970Z,98513.59
2023-03-02T22:26:11.818Z,98513.13
2023-03-02T22:28:41.101Z,98515.34
2023-03-02T22:31:18.500Z,98507.81
2023-03-02T22:33:46.087Z,98504.97
2023-03-02T22:36:21.055Z,98505.47
2023-03-02T22:38:48.941Z,98502.69
2023-03-02T22:41:18.689Z,98500.34
2023-03-02T22:43:47.107Z,98498.38
2023-03-02T22:46:20.245Z,98501.44
2023-03-02T22:48:50.296Z,98507.13
2023-03-02T22:51:27.981Z,98506.03
2023-03-02T22:53:57.985Z,98507.50
2023-03-02T22:56:35.920Z,98498.63
2023-03-02T22:59:17.134Z,98496.81
2023-03-02T23:01:45.842Z,98502.31
2023-03-02T23:04:21.454Z,98499.63
2023-03-02T23:06:51.944Z,98495.34
2023-03-02T23:09:26.052Z,98505.63
2023-03-02T23:11:57.314Z,98497.41
2023-03-02T23:14:47.113Z,98495.06
2023-03-02T23:17:21.500Z,98499.56
2023-03-02T23:19:50.915Z,98498.00
2023-03-02T23:22:18.550Z,98494.06
2023-03-02T23:24:46.182Z,98480.81
2023-03-02T23:27:13.721Z,98478.63
2023-03-02T23:29:41.295Z,98459.72
2023-03-02T23:32:09.742Z,98462.72
2023-03-02T23:34:37.349Z,98457.75
2023-03-02T23:37:07.440Z,98458.88
2023-03-02T23:39:34.974Z,98453.34
2023-03-02T23:42:02.657Z,98463.06
2023-03-02T23:44:32.900Z,98456.28
2023-03-02T23:47:01.370Z,98453.28
2023-03-02T23:49:28.968Z,98447.81
2023-03-02T23:51:56.595Z,98440.97
2023-03-02T23:54:24.028Z,98437.38
2023-03-02T23:56:51.512Z,98446.88
2023-03-02T23:59:19.454Z,98436.03
